Time;durP1;ratioP1;P1;durP2;ratioP2;P2;SDS_P1;SDS_P2;PMS_P1;PMS_P2;Temp;Humidity;BMP_temperature;BMP_pressure;BME280_temperature;BME280_humidity;BME280_pressure;Samples;Min_cycle;Max_cycle;Signal;HPM_P1;HPM_P2
2022/07/16 00:03:11;;;;;;;5.22;0.90;;;18.60;76.20;;;;;;5003698;28;20482;-91
2022/07/16 00:57:18;;;;;;;2.47;0.70;;;17.70;76.40;;;;;;5013970;23;20057;-83
2022/07/16 00:59:43;;;;;;;1.63;0.60;;;17.60;76.70;;;;;;4983861;28;20034;-83
2022/07/16 01:02:09;;;;;;;2.17;0.60;;;17.60;76.80;;;;;;5002231;28;20046;-83
2022/07/16 01:04:35;;;;;;;2.55;0.82;;;17.50;76.80;;;;;;4999459;28;20487;-83
2022/07/16 01:07:01;;;;;;;2.92;0.80;;;17.40;77.00;;;;;;4995357;28;20063;-84
2022/07/16 01:09:27;;;;;;;2.15;0.70;;;17.40;77.60;;;;;;4988730;28;20018;-84
2022/07/16 01:11:53;;;;;;;1.80;0.60;;;17.40;77.30;;;;;;4977543;28;20432;-84
2022/07/16 01:14:20;;;;;;;2.33;0.82;;;17.40;77.50;;;;;;4991593;28;20553;-84
2022/07/16 01:16:45;;;;;;;2.10;0.98;;;17.30;77.60;;;;;;4987293;28;20034;-84
2022/07/16 01:19:12;;;;;;;1.88;0.80;;;17.40;77.60;;;;;;4974348;28;20025;-84
2022/07/16 01:21:39;;;;;;;1.73;0.70;;;17.40;77.80;;;;;;4990894;28;20022;-84
2022/07/16 01:24:05;;;;;;;2.55;0.85;;;17.40;77.30;;;;;;4991102;28;20525;-84
2022/07/16 01:26:31;;;;;;;2.00;0.70;;;17.40;77.50;;;;;;4978454;28;20098;-84
2022/07/16 01:28:56;;;;;;;3.50;0.80;;;17.40;77.50;;;;;;4987094;28;20019;-84
2022/07/16 01:31:22;;;;;;;1.85;0.80;;;17.40;77.60;;;;;;4992565;28;20093;-84
2022/07/16 01:34:24;;;;;;;1.25;0.43;;;17.40;77.50;;;;;;4982709;28;20034;-84
2022/07/16 01:36:33;;;;;;;2.00;0.80;;;17.40;77.60;;;;;;4997959;28;20121;-84
2022/07/16 01:39:00;;;;;;;1.38;0.70;;;17.30;77.40;;;;;;4992192;28;20560;-84
2022/07/16 01:41:26;;;;;;;2.00;0.70;;;17.30;77.70;;;;;;4975661;28;20034;-84
2022/07/16 01:43:51;;;;;;;2.08;0.80;;;17.30;77.80;;;;;;4976164;28;20112;-84
2022/07/16 01:46:17;;;;;;;1.80;0.63;;;17.30;77.60;;;;;;4992295;28;20069;-84
2022/07/16 01:48:43;;;;;;;1.90;1.08;;;17.30;77.80;;;;;;4993782;28;20026;-84
2022/07/16 01:51:08;;;;;;;3.55;1.05;;;17.20;77.50;;;;;;4978702;28;20030;-84
2022/07/16 01:53:34;;;;;;;2.47;1.00;;;17.20;77.50;;;;;;4977197;28;20101;-84
2022/07/16 01:56:01;;;;;;;1.65;0.70;;;17.20;77.50;;;;;;4970911;28;20113;-84
2022/07/16 01:58:27;;;;;;;2.20;0.80;;;17.10;77.70;;;;;;4974838;28;20120;-83
2022/07/16 02:00:53;;;;;;;1.25;0.60;;;17.00;77.90;;;;;;4994656;28;20750;-84
2022/07/16 02:03:19;;;;;;;2.20;0.85;;;17.10;78.30;;;;;;4975927;28;20027;-83
2022/07/16 02:05:45;;;;;;;2.13;0.80;;;17.00;78.60;;;;;;4975812;28;20038;-84
2022/07/16 02:08:11;;;;;;;2.35;0.88;;;17.00;78.40;;;;;;4992670;28;20026;-84
2022/07/16 02:10:37;;;;;;;3.10;0.90;;;17.00;78.40;;;;;;4977191;28;20023;-84
2022/07/16 02:13:03;;;;;;;2.00;0.60;;;17.50;79.50;;;;;;4973449;28;20172;-83
2022/07/16 02:15:29;;;;;;;2.47;0.80;;;16.90;78.30;;;;;;4977268;28;20030;-84
2022/07/16 02:17:55;;;;;;;1.25;0.60;;;16.90;78.70;;;;;;4974554;28;20037;-85
2022/07/16 02:20:21;;;;;;;2.00;0.70;;;17.00;79.40;;;;;;4973922;28;20560;-84
2022/07/16 02:22:46;;;;;;;2.17;0.60;;;17.10;82.40;;;;;;4972702;28;20093;-84
2022/07/16 02:25:16;;;;;;;1.95;0.75;;;16.80;79.20;;;;;;4991369;28;20038;-84
2022/07/16 02:28:05;;;;;;;2.10;0.70;;;16.90;79.00;;;;;;4971530;28;20096;-84
2022/07/16 02:30:27;;;;;;;3.20;0.80;;;17.00;78.90;;;;;;4989675;28;20045;-84
2022/07/16 02:32:53;;;;;;;1.80;0.70;;;16.90;79.00;;;;;;4974076;28;20507;-84
2022/07/16 02:35:19;;;;;;;1.88;0.70;;;16.90;78.60;;;;;;4974439;28;20057;-84
2022/07/16 02:37:44;;;;;;;1.30;0.60;;;16.90;78.80;;;;;;4993537;28;20032;-84
2022/07/16 02:40:10;;;;;;;1.13;0.50;;;16.90;79.20;;;;;;4992346;28;20030;-84
2022/07/16 02:42:36;;;;;;;1.73;0.70;;;16.90;79.10;;;;;;4977977;28;20491;-84
2022/07/16 02:45:02;;;;;;;2.20;0.80;;;16.90;78.70;;;;;;4985880;28;20040;-84
2022/07/16 02:47:28;;;;;;;1.65;0.70;;;16.90;78.40;;;;;;4967846;28;20041;-83
2022/07/16 02:49:53;;;;;;;1.13;0.45;;;16.90;78.80;;;;;;4982417;28;20030;-84
2022/07/16 02:52:19;;;;;;;0.98;0.43;;;16.90;78.80;;;;;;4972544;28;20391;-84
2022/07/16 02:54:44;;;;;;;2.22;0.73;;;16.70;78.90;;;;;;4966399;28;20084;-84
2022/07/16 02:57:10;;;;;;;1.65;0.60;;;16.90;79.30;;;;;;4972484;28;20041;-84
2022/07/16 02:59:36;;;;;;;2.10;0.75;;;16.80;79.40;;;;;;4991514;28;20483;-84
2022/07/16 03:02:01;;;;;;;2.30;0.75;;;16.80;80.00;;;;;;4991527;28;20030;-84
2022/07/16 03:04:27;;;;;;;3.17;0.57;;;16.80;80.00;;;;;;4989330;28;20049;-84
2022/07/16 03:06:53;;;;;;;1.92;0.60;;;16.80;80.30;;;;;;4993927;28;20390;-84
2022/07/16 03:09:18;;;;;;;2.17;0.65;;;16.80;80.40;;;;;;4973802;28;20509;-85
2022/07/16 03:11:46;;;;;;;1.27;0.60;;;16.70;80.30;;;;;;4991054;28;20050;-84
2022/07/16 03:14:12;;;;;;;3.35;0.88;;;16.70;80.40;;;;;;4989674;28;20566;-84
2022/07/16 03:16:37;;;;;;;2.15;0.60;;;16.70;80.40;;;;;;4989389;28;20067;-84
2022/07/16 03:19:03;;;;;;;1.67;0.82;;;16.70;80.40;;;;;;4974093;28;20053;-84
2022/07/16 03:21:28;;;;;;;1.83;0.68;;;16.70;80.70;;;;;;4988895;28;20030;-83
2022/07/16 03:23:54;;;;;;;4.25;0.90;;;16.60;81.40;;;;;;4970215;28;20037;-84
2022/07/16 03:26:20;;;;;;;2.80;0.70;;;16.60;81.50;;;;;;4974052;28;20451;-84
2022/07/16 03:28:45;;;;;;;1.85;0.68;;;16.40;81.60;;;;;;4985341;28;20553;-84
2022/07/16 03:31:11;;;;;;;2.05;0.60;;;16.40;84.40;;;;;;4972301;28;20041;-84
2022/07/16 03:33:36;;;;;;;2.00;0.70;;;16.10;84.40;;;;;;4978392;28;20113;-84
2022/07/16 03:36:02;;;;;;;3.97;0.93;;;16.20;82.50;;;;;;4989526;28;20118;-84
2022/07/16 03:41:12;;;;;;;7.22;1.02;;;16.20;82.40;;;;;;4988891;28;20045;-84
2022/07/16 03:43:38;;;;;;;2.13;0.68;;;16.10;82.30;;;;;;4990032;28;20094;-84
2022/07/16 03:46:04;;;;;;;2.78;0.80;;;16.20;82.30;;;;;;4988713;28;20474;-84
2022/07/16 03:48:29;;;;;;;2.17;0.80;;;16.20;82.30;;;;;;4977677;28;20032;-84
2022/07/16 03:50:55;;;;;;;1.77;0.70;;;16.20;82.10;;;;;;4991404;28;20097;-84
2022/07/16 03:53:21;;;;;;;2.15;1.00;;;16.20;82.20;;;;;;4995227;28;20030;-84
2022/07/16 03:55:46;;;;;;;1.65;0.73;;;16.20;82.40;;;;;;4996544;28;20030;-85
2022/07/16 03:58:12;;;;;;;2.78;0.77;;;16.20;82.30;;;;;;4995052;28;20070;-85
2022/07/16 04:00:37;;;;;;;1.48;0.65;;;16.10;82.70;;;;;;4977294;28;20018;-84
2022/07/16 04:03:03;;;;;;;2.45;1.00;;;16.10;82.70;;;;;;4992857;28;20030;-85
2022/07/16 04:05:29;;;;;;;2.33;0.63;;;16.10;83.10;;;;;;4990608;28;20018;-85
2022/07/16 04:07:55;;;;;;;2.15;0.90;;;16.10;83.00;;;;;;4990719;28;20037;-84
2022/07/16 04:10:20;;;;;;;1.48;0.65;;;16.10;83.10;;;;;;4972848;28;20027;-84
2022/07/16 04:12:46;;;;;;;2.35;0.80;;;16.10;83.40;;;;;;4973637;28;20125;-84
2022/07/16 04:15:11;;;;;;;2.35;0.80;;;16.40;83.60;;;;;;4992076;28;20022;-84
2022/07/16 04:17:37;;;;;;;2.35;0.98;;;16.10;83.80;;;;;;4994354;28;20022;-84
2022/07/16 04:20:04;;;;;;;2.20;0.80;;;16.10;83.90;;;;;;4989643;28;20034;-84
2022/07/16 04:22:29;;;;;;;1.55;0.65;;;16.10;84.00;;;;;;4990870;28;20030;-84
2022/07/16 04:24:55;;;;;;;2.65;0.90;;;16.10;83.90;;;;;;4994629;28;20543;-85
2022/07/16 04:27:21;;;;;;;3.60;1.00;;;16.20;84.00;;;;;;4974559;28;20109;-84
2022/07/16 04:29:46;;;;;;;2.95;0.85;;;16.20;84.20;;;;;;4970889;28;20084;-85
2022/07/16 04:32:12;;;;;;;1.52;0.57;;;16.20;84.10;;;;;;4976773;28;20030;-84
2022/07/16 04:34:38;;;;;;;1.83;0.73;;;16.30;83.90;;;;;;4976745;28;20487;-85
2022/07/16 04:37:03;;;;;;;3.17;0.90;;;16.30;84.30;;;;;;4982089;28;20027;-84
2022/07/16 04:39:29;;;;;;;2.45;0.90;;;16.40;84.50;;;;;;4995390;28;20022;-84
2022/07/16 04:41:54;;;;;;;1.40;0.77;;;16.40;83.90;;;;;;4994628;28;20517;-85
2022/07/16 04:44:20;;;;;;;3.55;0.93;;;16.50;83.70;;;;;;4994813;28;20026;-85
2022/07/16 04:46:46;;;;;;;1.35;0.80;;;16.50;83.40;;;;;;4973639;28;20041;-84
2022/07/16 04:49:11;;;;;;;3.75;0.80;;;16.60;83.20;;;;;;4975405;28;20077;-84
2022/07/16 04:51:37;;;;;;;1.63;0.68;;;16.70;84.10;;;;;;4994217;28;20022;-84
2022/07/16 04:54:03;;;;;;;1.45;0.68;;;16.80;85.00;;;;;;4991012;28;21462;-84
2022/07/16 04:56:28;;;;;;;1.77;0.80;;;16.80;85.00;;;;;;4975001;28;20034;-85
2022/07/16 04:58:54;;;;;;;2.38;0.98;;;16.90;85.00;;;;;;4975543;28;20030;-85
2022/07/16 05:01:20;;;;;;;2.40;0.80;;;16.90;84.10;;;;;;4973269;28;20149;-85
2022/07/16 05:03:45;;;;;;;1.52;0.63;;;17.00;84.20;;;;;;4974162;28;20041;-84
2022/07/16 05:06:11;;;;;;;2.42;0.73;;;17.00;83.40;;;;;;4990194;28;20034;-84
2022/07/16 05:08:39;;;;;;;1.95;0.60;;;17.00;82.90;;;;;;4973120;28;20519;-84
2022/07/16 05:11:05;;;;;;;2.58;1.60;;;17.10;82.10;;;;;;4970536;28;20026;-84
2022/07/16 05:13:30;;;;;;;2.10;0.80;;;17.10;82.20;;;;;;4972636;28;20120;-84
2022/07/16 05:15:57;;;;;;;1.58;0.73;;;17.20;82.70;;;;;;4991037;28;20030;-85
2022/07/16 05:18:22;;;;;;;1.55;0.60;;;17.20;83.00;;;;;;4989897;28;20026;-85
2022/07/16 05:20:48;;;;;;;2.47;0.85;;;17.30;82.60;;;;;;4972958;28;20431;-84
2022/07/16 05:23:14;;;;;;;2.92;0.90;;;17.40;82.30;;;;;;4973059;28;20033;-85
2022/07/16 05:25:39;;;;;;;4.43;1.52;;;17.50;82.30;;;;;;4972395;28;20033;-85
2022/07/16 05:28:05;;;;;;;1.70;0.70;;;17.60;82.50;;;;;;4985673;28;20022;-85
2022/07/16 05:30:30;;;;;;;1.75;0.70;;;17.60;82.30;;;;;;4991409;28;20025;-84
2022/07/16 05:32:56;;;;;;;2.15;0.68;;;17.70;82.30;;;;;;4973565;28;20169;-84
2022/07/16 05:35:22;;;;;;;1.85;0.60;;;17.70;82.00;;;;;;4973114;28;20109;-84
2022/07/16 05:37:47;;;;;;;3.75;0.85;;;17.70;81.10;;;;;;4990864;28;20037;-84
2022/07/16 05:40:13;;;;;;;1.90;0.70;;;17.80;81.70;;;;;;4972062;28;20030;-85
2022/07/16 05:42:39;;;;;;;2.33;0.77;;;17.90;81.10;;;;;;5003597;28;20041;-84
2022/07/16 05:45:05;;;;;;;2.08;1.00;;;17.90;80.10;;;;;;4996072;28;20010;-84
2022/07/16 05:47:33;;;;;;;3.05;1.02;;;17.80;80.30;;;;;;4994646;28;20041;-85
2022/07/16 05:50:02;;;;;;;3.22;1.00;;;17.80;80.20;;;;;;4993222;28;20026;-84
2022/07/16 05:52:28;;;;;;;2.30;0.80;;;17.80;81.00;;;;;;5013225;28;20024;-84
2022/07/16 05:54:53;;;;;;;1.92;0.73;;;17.90;80.60;;;;;;4997608;28;20034;-84
2022/07/16 05:57:19;;;;;;;4.15;1.42;;;18.00;80.00;;;;;;5012458;28;20023;-84
2022/07/16 05:59:45;;;;;;;2.88;1.13;;;18.20;79.50;;;;;;4996895;28;20042;-84
2022/07/16 06:02:10;;;;;;;4.88;1.27;;;18.20;79.00;;;;;;4994017;28;20105;-84
2022/07/16 06:04:36;;;;;;;3.45;1.17;;;18.20;79.10;;;;;;4972464;28;20117;-85
2022/07/16 06:07:02;;;;;;;3.65;1.02;;;18.30;79.70;;;;;;4990692;28;20529;-85
2022/07/16 06:09:27;;;;;;;2.35;0.77;;;18.20;79.50;;;;;;4991074;28;20037;-84
2022/07/16 06:11:53;;;;;;;2.15;0.70;;;18.30;79.00;;;;;;4990195;28;20549;-85
2022/07/16 06:14:19;;;;;;;2.55;1.00;;;18.40;79.00;;;;;;4990510;28;20030;-85
2022/07/16 06:16:44;;;;;;;4.03;0.80;;;18.40;78.90;;;;;;4988830;28;21579;-84
2022/07/16 06:19:10;;;;;;;1.70;0.85;;;18.50;77.50;;;;;;4972098;28;20035;-84
2022/07/16 06:21:36;;;;;;;4.07;0.73;;;18.50;77.70;;;;;;4989689;28;20101;-84
2022/07/16 06:24:02;;;;;;;1.10;0.57;;;18.40;77.40;;;;;;4972481;28;20842;-84
2022/07/16 06:26:28;;;;;;;2.15;0.88;;;18.40;77.70;;;;;;4990058;28;20030;-84
2022/07/16 06:28:53;;;;;;;2.00;0.68;;;18.40;78.50;;;;;;4989862;28;20026;-84
2022/07/16 06:31:19;;;;;;;2.20;0.63;;;18.50;78.80;;;;;;4971559;28;20483;-84
2022/07/16 06:33:44;;;;;;;1.65;0.60;;;18.70;79.00;;;;;;4971904;28;20035;-84
2022/07/16 06:36:10;;;;;;;1.92;0.60;;;18.90;77.80;;;;;;4969948;28;20498;-85
2022/07/16 06:38:36;;;;;;;1.95;0.60;;;19.00;77.50;;;;;;4971447;28;20026;-85
2022/07/16 06:41:01;;;;;;;1.67;0.68;;;19.20;77.00;;;;;;4990335;28;20041;-85
2022/07/16 06:43:27;;;;;;;3.83;0.60;;;19.40;76.90;;;;;;4971612;28;20026;-85
2022/07/16 06:45:53;;;;;;;1.77;0.52;;;19.50;76.20;;;;;;4971313;28;20030;-84
2022/07/16 06:48:19;;;;;;;1.88;0.70;;;19.60;75.60;;;;;;4973203;28;20025;-84
2022/07/16 06:50:44;;;;;;;3.25;0.60;;;19.70;75.50;;;;;;4971298;28;20027;-85
2022/07/16 06:53:10;;;;;;;2.35;0.60;;;19.80;76.00;;;;;;4988706;28;20080;-85
2022/07/16 06:55:36;;;;;;;1.83;0.60;;;19.90;76.00;;;;;;4970578;28;20499;-85
2022/07/16 06:58:01;;;;;;;1.02;0.55;;;20.00;76.10;;;;;;5003539;23;20045;-89
2022/07/16 07:00:27;;;;;;;1.92;0.90;;;20.10;76.90;;;;;;4990369;28;20026;-88
2022/07/16 07:02:53;;;;;;;1.48;0.80;;;20.20;76.80;;;;;;4990507;28;20034;-88
2022/07/16 07:05:18;;;;;;;1.40;0.57;;;20.30;76.50;;;;;;4990581;28;20149;-87
2022/07/16 07:07:44;;;;;;;3.08;0.82;;;20.50;76.00;;;;;;4977305;28;20109;-88
2022/07/16 07:10:10;;;;;;;1.55;0.70;;;20.50;75.50;;;;;;4974090;28;20030;-86
2022/07/16 07:12:36;;;;;;;1.80;0.70;;;20.50;75.20;;;;;;4971082;28;20031;-88
2022/07/16 07:15:02;;;;;;;3.25;0.85;;;20.60;74.60;;;;;;4984636;28;20383;-89
2022/07/16 07:17:28;;;;;;;2.72;0.65;;;20.70;74.50;;;;;;4989631;28;20034;-89
2022/07/16 07:19:54;;;;;;;1.67;0.60;;;20.80;74.80;;;;;;4968500;28;20034;-88
2022/07/16 07:22:20;;;;;;;1.25;0.60;;;20.90;74.50;;;;;;4970191;28;20178;-88
2022/07/16 07:24:45;;;;;;;1.85;0.70;;;20.90;74.90;;;;;;4970079;28;20493;-89
2022/07/16 07:27:11;;;;;;;2.72;0.70;;;20.90;74.50;;;;;;4971438;28;20023;-87
2022/07/16 07:29:37;;;;;;;1.30;0.60;;;21.10;74.50;;;;;;4975901;28;20030;-90
2022/07/16 07:32:04;;;;;;;1.67;0.70;;;21.30;74.50;;;;;;4993680;28;20026;-90
2022/07/16 07:34:40;;;;;;;2.35;0.63;;;21.40;73.80;;;;;;4968605;28;20437;-90
2022/07/16 07:37:05;;;;;;;3.33;0.80;;;21.60;73.40;;;;;;4973108;28;20038;-90
2022/07/16 07:39:31;;;;;;;3.40;0.68;;;21.60;73.60;;;;;;4998609;28;20026;-91
2022/07/16 07:42:12;;;;;;;3.20;0.82;;;21.60;73.20;;;;;;4974757;28;20030;-90
2022/07/16 07:44:45;;;;;;;1.40;0.60;;;21.80;71.30;;;;;;4977042;28;20157;-90
2022/07/16 07:47:18;;;;;;;2.40;0.80;;;21.70;71.10;;;;;;4977662;28;20030;-91
2022/07/16 07:49:48;;;;;;;2.15;0.70;;;21.90;72.10;;;;;;4976585;28;20026;-90
2022/07/16 07:52:13;;;;;;;2.00;0.90;;;22.10;70.40;;;;;;4970598;28;20030;-91
2022/07/16 07:54:58;;;;;;;2.65;0.93;;;22.10;70.80;;;;;;4979208;28;20387;-91
2022/07/16 07:57:23;;;;;;;1.63;0.73;;;22.30;70.10;;;;;;4983648;28;20057;-93
2022/07/16 08:00:01;;;;;;;1.83;0.63;;;22.50;69.40;;;;;;4997521;28;20035;-91
2022/07/16 08:02:26;;;;;;;1.63;0.60;;;22.60;68.70;;;;;;4981583;28;20037;-90
2022/07/16 08:05:03;;;;;;;1.65;0.57;;;22.50;65.70;;;;;;4973906;28;20022;-91
2022/07/16 08:07:31;;;;;;;2.28;0.73;;;22.70;67.20;;;;;;4975372;28;20196;-91
2022/07/16 08:10:26;;;;;;;2.92;1.00;;;22.80;67.40;;;;;;4979045;28;20041;-91
2022/07/16 08:13:10;;;;;;;2.15;0.75;;;23.10;66.70;;;;;;4977767;28;20112;-91
2022/07/16 08:15:36;;;;;;;2.08;0.70;;;23.10;66.90;;;;;;4974443;28;20113;-90
2022/07/16 08:18:02;;;;;;;2.15;0.80;;;23.10;66.00;;;;;;4973633;28;20125;-90
2022/07/16 08:20:34;;;;;;;7.38;1.05;;;23.30;65.90;;;;;;4966196;28;20022;-91
2022/07/16 08:23:00;;;;;;;1.73;0.70;;;23.40;65.50;;;;;;4971353;28;20033;-90
2022/07/16 08:25:45;;;;;;;1.75;0.90;;;23.60;65.20;;;;;;4991224;28;20030;-89
2022/07/16 08:28:15;;;;;;;2.40;0.70;;;23.50;65.00;;;;;;4979456;28;20026;-89
2022/07/16 08:30:42;;;;;;;2.33;0.63;;;23.60;64.00;;;;;;4980068;28;20094;-89
2022/07/16 08:33:09;;;;;;;3.17;0.98;;;23.60;63.70;;;;;;4981796;28;20461;-90
2022/07/16 08:35:35;;;;;;;1.60;0.60;;;23.60;63.80;;;;;;4977795;28;20395;-90
2022/07/16 08:38:03;;;;;;;2.50;0.50;;;23.60;63.40;;;;;;4979068;28;20033;-89
2022/07/16 08:40:33;;;;;;;1.77;0.55;;;23.30;63.20;;;;;;4978288;28;20065;-91
2022/07/16 08:43:00;;;;;;;1.88;0.70;;;23.30;63.60;;;;;;4972742;28;20391;-89
2022/07/16 08:45:26;;;;;;;2.95;0.85;;;23.40;63.70;;;;;;4976051;28;20042;-91
2022/07/16 08:47:55;;;;;;;0.82;0.30;;;23.60;63.90;;;;;;4984099;28;20034;-90
2022/07/16 08:50:22;;;;;;;1.42;0.30;;;23.80;64.00;;;;;;4981297;28;20399;-89
2022/07/16 08:52:56;;;;;;;1.35;0.40;;;23.90;61.30;;;;;;4973198;28;20019;-90
2022/07/16 08:55:54;;;;;;;0.82;0.30;;;24.10;61.40;;;;;;4985207;28;20036;-93
2022/07/16 08:58:47;;;;;;;0.95;0.50;;;24.20;60.60;;;;;;4991782;23;20056;-92
2022/07/16 09:01:49;;;;;;;1.33;0.50;;;24.90;60.70;;;;;;4932953;29;20039;-92
2022/07/16 09:04:22;;;;;;;0.93;0.32;;;23.90;61.20;;;;;;4937742;29;20035;-92
2022/07/16 09:20:53;;;;;;;0.70;0.30;;;24.70;59.60;;;;;;4985351;28;20061;-93
2022/07/16 09:23:31;;;;;;;0.55;0.25;;;24.60;58.50;;;;;;4973515;28;20129;-89
2022/07/16 09:26:06;;;;;;;2.72;0.57;;;24.90;59.20;;;;;;4987599;28;20372;-89
2022/07/16 09:28:48;;;;;;;1.10;0.30;;;25.00;58.40;;;;;;4970778;28;20112;-88
2022/07/16 09:31:31;;;;;;;1.45;0.20;;;25.10;58.20;;;;;;4972967;28;20546;-88
2022/07/16 09:34:04;;;;;;;1.23;0.30;;;24.90;58.00;;;;;;4972245;28;20054;-88
2022/07/16 09:36:30;;;;;;;1.38;0.32;;;24.90;57.50;;;;;;4986590;28;20570;-88
2022/07/16 09:38:56;;;;;;;1.55;0.50;;;24.90;57.40;;;;;;4969003;28;20182;-87
2022/07/16 09:41:22;;;;;;;2.63;0.47;;;25.00;57.70;;;;;;4969889;28;20034;-86
2022/07/16 09:43:48;;;;;;;0.55;0.30;;;25.20;57.50;;;;;;4970284;28;20042;-86
2022/07/16 09:46:19;;;;;;;1.05;0.28;;;25.50;57.60;;;;;;4984995;28;20076;-85
2022/07/16 09:48:48;;;;;;;1.15;0.40;;;25.60;56.10;;;;;;4987731;28;20026;-84
2022/07/16 09:51:19;;;;;;;1.27;0.30;;;25.70;56.60;;;;;;4989940;28;20030;-85
2022/07/16 09:53:47;;;;;;;1.20;0.30;;;25.80;56.90;;;;;;4972399;28;20372;-84
2022/07/16 09:56:16;;;;;;;0.70;0.30;;;25.90;56.50;;;;;;4971669;28;20030;-86
2022/07/16 09:58:46;;;;;;;1.08;0.40;;;26.00;56.70;;;;;;4989731;28;20030;-87
2022/07/16 10:01:12;;;;;;;1.45;0.40;;;26.00;55.80;;;;;;4969912;28;20557;-86
2022/07/16 10:03:38;;;;;;;1.50;0.50;;;26.20;55.60;;;;;;4973383;28;20498;-87
2022/07/16 10:06:04;;;;;;;0.95;0.32;;;26.50;56.10;;;;;;4989956;28;20034;-87
2022/07/16 10:08:31;;;;;;;0.68;0.30;;;26.70;56.30;;;;;;4972113;28;20123;-85
2022/07/16 10:10:57;;;;;;;0.88;0.30;;;26.50;56.10;;;;;;4972982;28;20438;-87
2022/07/16 10:13:26;;;;;;;1.25;0.40;;;26.70;55.30;;;;;;4972200;28;20018;-87
2022/07/16 10:15:52;;;;;;;1.30;0.30;;;26.80;54.50;;;;;;4979081;28;20395;-86
2022/07/16 10:18:33;;;;;;;1.20;0.30;;;26.70;55.00;;;;;;4988464;28;20487;-86
2022/07/16 10:21:14;;;;;;;0.77;0.30;;;26.80;55.10;;;;;;4967990;28;20443;-86
2022/07/16 10:23:47;;;;;;;0.52;0.20;;;26.90;54.90;;;;;;4962115;28;20041;-86
2022/07/16 10:26:23;;;;;;;1.00;0.25;;;26.80;55.70;;;;;;4988609;28;20010;-87
2022/07/16 10:28:50;;;;;;;0.65;0.30;;;26.60;55.00;;;;;;4988498;28;20109;-86
2022/07/16 10:31:40;;;;;;;1.30;0.32;;;26.50;55.50;;;;;;4971133;28;20026;-88
2022/07/16 10:34:55;;;;;;;0.73;0.37;;;26.80;54.80;;;;;;4968518;28;20026;-92
2022/07/16 10:38:00;;;;;;;0.73;0.30;;;26.60;55.60;;;;;;4965081;28;20042;-90
2022/07/16 10:41:19;;;;;;;0.60;0.28;;;26.90;55.60;;;;;;4973072;28;20030;-91
2022/07/16 10:44:12;;;;;;;1.20;0.32;;;27.10;55.00;;;;;;4957748;28;20042;-92
2022/07/16 11:16:35;;;;;;;2.03;0.40;;;27.70;53.80;;;;;;4895282;29;20111;-90
2022/07/16 11:19:37;;;;;;;1.13;0.43;;;28.00;53.00;;;;;;4876140;29;20482;-90
2022/07/16 11:22:28;;;;;;;;;;;;;;;;;;;;;
2022/07/16 11:25:30;;;;;;;;;;;;;;;;;;;;;
2022/07/16 11:34:50;;;;;;;1.00;0.30;;;27.80;53.40;;;;;;4885293;28;20151;-90
2022/07/16 11:37:42;;;;;;;1.23;0.20;;;27.80;52.90;;;;;;4959863;28;20068;-91
2022/07/16 11:40:11;;;;;;;0.68;0.30;;;27.80;53.20;;;;;;4971262;28;20315;-89
2022/07/16 11:42:40;;;;;;;0.45;0.22;;;28.40;52.60;;;;;;4952896;28;20019;-91
2022/07/16 11:45:10;;;;;;;0.40;0.20;;;28.60;53.00;;;;;;4954490;28;20026;-90
2022/07/16 11:47:35;;;;;;;0.63;0.10;;;28.80;52.10;;;;;;4955596;28;20105;-89
2022/07/16 11:50:01;;;;;;;0.88;0.40;;;29.10;51.40;;;;;;4957172;28;20110;-89
2022/07/16 11:52:27;;;;;;;0.70;0.30;;;29.00;51.10;;;;;;4970780;28;20527;-89
2022/07/16 11:55:31;;;;;;;1.13;0.30;;;29.00;51.50;;;;;;4955497;28;20027;-89
2022/07/16 12:01:10;;;;;;;0.75;0.30;;;29.10;50.90;;;;;;4912706;29;20059;-90
2022/07/16 12:03:56;;;;;;;1.55;0.20;;;28.90;51.20;;;;;;4949752;28;20103;-90
2022/07/16 12:10:00;;;;;;;1.13;0.50;;;29.50;50.90;;;;;;5111924;23;20449;-90
2022/07/16 12:13:42;;;;;;;;;;;;;;;;;;;;;
2022/07/16 12:19:23;;;;;;;1.95;0.20;;;29.40;49.90;;;;;;4986846;22;20077;-90
2022/07/16 12:22:40;;;;;;;1.08;0.20;;;29.60;49.00;;;;;;4969661;28;20118;-91
2022/07/16 12:25:47;;;;;;;0.60;0.20;;;29.70;49.90;;;;;;4980681;28;20061;-90
2022/07/16 12:34:54;;;;;;;0.70;0.20;;;30.80;48.90;;;;;;4973153;28;20122;-89
2022/07/16 12:40:24;;;;;;;0.77;0.30;;;30.10;49.10;;;;;;5024623;28;20442;-90
2022/07/16 12:43:36;;;;;;;0.50;0.20;;;30.30;49.50;;;;;;5028896;28;20021;-90
2022/07/16 12:49:41;;;;;;;0.30;0.20;;;30.60;49.30;;;;;;5028957;28;20745;-90
2022/07/16 12:52:42;;;;;;;0.30;0.10;;;30.50;49.40;;;;;;4997397;28;20044;-89
2022/07/16 13:00:48;;;;;;;0.32;0.15;;;30.10;49.80;;;;;;5009562;28;20085;-87
2022/07/16 13:03:13;;;;;;;0.75;0.25;;;29.70;50.70;;;;;;4988442;28;21270;-88
2022/07/16 13:05:46;;;;;;;1.05;0.30;;;29.90;50.40;;;;;;4985650;28;20026;-87
2022/07/16 13:08:12;;;;;;;0.30;0.22;;;29.90;50.00;;;;;;5000369;28;20026;-87
2022/07/16 13:10:38;;;;;;;0.25;0.20;;;30.20;50.20;;;;;;4968655;28;20088;-87
2022/07/16 13:13:04;;;;;;;0.80;0.10;;;30.60;50.20;;;;;;4978272;28;20068;-87
2022/07/16 13:15:30;;;;;;;0.80;0.15;;;30.50;50.00;;;;;;4970884;28;20121;-86
2022/07/16 13:17:55;;;;;;;0.98;0.30;;;30.20;50.50;;;;;;4972642;28;20131;-87
2022/07/16 13:20:23;;;;;;;1.23;0.20;;;30.50;50.00;;;;;;4975149;28;20019;-88
2022/07/16 13:22:48;;;;;;;1.20;0.30;;;30.80;50.10;;;;;;4975894;28;20320;-87
2022/07/16 13:25:14;;;;;;;0.65;0.20;;;30.90;49.60;;;;;;4971618;28;20037;-87
2022/07/16 13:27:40;;;;;;;0.45;0.30;;;31.10;49.70;;;;;;4978085;28;20050;-87
2022/07/16 13:30:06;;;;;;;1.13;0.20;;;30.80;49.60;;;;;;4976101;28;20026;-88
2022/07/16 13:32:31;;;;;;;1.30;0.35;;;30.60;49.80;;;;;;4977025;28;20693;-88
2022/07/16 13:34:57;;;;;;;0.77;0.30;;;30.80;49.80;;;;;;4976641;28;20022;-89
2022/07/16 13:37:23;;;;;;;0.82;0.20;;;30.70;48.80;;;;;;4992702;28;20038;-89
2022/07/16 13:39:48;;;;;;;2.00;0.20;;;30.80;48.90;;;;;;4993931;28;20026;-89
2022/07/16 13:42:14;;;;;;;0.40;0.13;;;31.20;49.90;;;;;;4995205;28;20084;-89
2022/07/16 13:44:43;;;;;;;0.50;0.17;;;31.10;48.70;;;;;;4978189;28;20063;-87
2022/07/16 13:47:10;;;;;;;0.68;0.20;;;31.30;49.00;;;;;;4992812;28;20025;-87
2022/07/16 13:49:36;;;;;;;0.73;0.30;;;30.80;49.20;;;;;;4977160;28;20019;-89
2022/07/16 13:52:03;;;;;;;0.38;0.20;;;30.60;49.40;;;;;;4978611;28;20025;-88
2022/07/16 13:54:29;;;;;;;1.92;0.30;;;31.00;48.70;;;;;;4971846;28;20030;-87
2022/07/16 13:59:42;;;;;;;0.40;0.20;;;31.70;49.10;;;;;;4985660;28;20061;-89
2022/07/16 14:02:07;;;;;;;0.95;0.30;;;31.70;48.40;;;;;;4974355;28;20474;-89
2022/07/16 14:04:33;;;;;;;0.40;0.25;;;31.70;48.70;;;;;;4992311;28;20034;-86
2022/07/16 14:06:58;;;;;;;0.98;0.25;;;31.70;48.50;;;;;;4969221;28;20026;-85
2022/07/16 14:09:24;;;;;;;1.17;0.20;;;31.70;48.70;;;;;;4972225;28;20053;-87
2022/07/16 14:11:50;;;;;;;0.10;0.10;;;31.40;48.10;;;;;;4975385;28;20038;-87
2022/07/16 14:14:15;;;;;;;0.85;0.30;;;31.80;49.20;;;;;;4974945;28;20030;-87
2022/07/16 14:16:41;;;;;;;0.90;0.20;;;32.20;47.90;;;;;;4966835;28;20030;-86
2022/07/16 14:19:07;;;;;;;0.52;0.20;;;31.90;47.80;;;;;;4990040;28;20548;-87
2022/07/16 14:21:38;;;;;;;1.85;0.30;;;32.30;47.70;;;;;;4991747;28;20033;-87
2022/07/16 14:24:05;;;;;;;1.13;0.32;;;32.20;48.10;;;;;;4966647;28;20128;-88
2022/07/16 14:26:31;;;;;;;1.25;0.30;;;32.10;47.90;;;;;;4991545;28;20022;-87
2022/07/16 14:28:57;;;;;;;0.30;0.20;;;32.50;48.30;;;;;;4973942;28;20026;-86
2022/07/16 14:31:23;;;;;;;0.88;0.30;;;32.60;47.90;;;;;;4976155;28;21323;-87
2022/07/16 14:33:50;;;;;;;0.75;0.30;;;32.70;47.60;;;;;;4991897;28;20105;-87
2022/07/16 14:36:16;;;;;;;0.63;0.30;;;31.80;47.30;;;;;;4973093;28;20041;-87
2022/07/16 14:38:42;;;;;;;0.52;0.22;;;31.70;48.20;;;;;;4974744;28;20064;-85
2022/07/16 14:41:08;;;;;;;2.88;0.60;;;31.80;48.20;;;;;;4975874;28;20426;-87
2022/07/16 14:43:53;;;;;;;1.50;0.30;;;31.80;48.00;;;;;;4972138;28;20398;-86
2022/07/16 14:46:29;;;;;;;0.40;0.28;;;31.90;48.40;;;;;;4970176;28;20030;-85
2022/07/16 14:49:18;;;;;;;0.45;0.20;;;32.10;48.50;;;;;;4989011;28;20443;-85
2022/07/16 14:52:20;;;;;;;1.20;0.20;;;32.20;48.20;;;;;;4991399;28;20026;-86
2022/07/16 14:54:51;;;;;;;0.75;0.22;;;32.20;48.40;;;;;;4976294;28;20037;-85
2022/07/16 14:57:24;;;;;;;1.50;0.40;;;32.10;49.00;;;;;;4974229;28;20030;-85
2022/07/16 14:59:54;;;;;;;0.88;0.47;;;32.20;48.40;;;;;;4969452;28;20401;-85
2022/07/16 15:02:30;;;;;;;1.33;0.40;;;31.90;48.00;;;;;;4972168;28;20623;-85
2022/07/16 15:04:59;;;;;;;0.88;0.30;;;31.70;48.50;;;;;;4979749;28;20904;-85
2022/07/16 15:07:55;;;;;;;1.05;0.28;;;31.40;48.50;;;;;;4979965;28;20297;-85
2022/07/16 15:10:32;;;;;;;1.00;0.32;;;31.50;49.10;;;;;;4985307;28;20110;-85
2022/07/16 15:12:58;;;;;;;1.63;0.30;;;32.00;48.70;;;;;;4987828;28;20475;-85
2022/07/16 15:15:59;;;;;;;0.68;0.30;;;32.40;48.70;;;;;;4985621;28;20097;-85
2022/07/16 15:18:39;;;;;;;1.00;0.30;;;32.70;48.70;;;;;;4972076;28;20602;-85
2022/07/16 15:21:10;;;;;;;1.42;0.40;;;32.40;48.40;;;;;;4971568;28;20037;-84
2022/07/16 15:23:38;;;;;;;0.47;0.15;;;32.20;48.60;;;;;;4984696;28;20062;-85